createdAt,value
2023-04-18T00:01:28.812Z,102770.84
2023-04-18T00:03:55.911Z,102773.69
2023-04-18T00:06:22.456Z,102797.22
2023-04-18T00:08:49.185Z,102800.09
2023-04-18T00:11:15.756Z,102786.47
2023-04-18T00:13:42.285Z,102789.06
2023-04-18T00:16:08.935Z,102773.44
2023-04-18T00:18:36.805Z,102788.06
2023-04-18T00:21:04.347Z,102763.91
2023-04-18T00:23:31.188Z,102781.09
2023-04-18T00:25:57.740Z,102780.94
2023-04-18T00:28:24.196Z,102786.91
2023-04-18T00:30:50.923Z,102779.94
2023-04-18T00:33:17.728Z,102792.13
2023-04-18T00:35:44.321Z,102791.88
2023-04-18T00:38:10.854Z,102789.22
2023-04-18T00:40:38.247Z,102791.88
2023-04-18T00:43:06.862Z,102732.38
2023-04-18T00:45:33.296Z,102771.97
2023-04-18T00:47:59.787Z,102763.34
2023-04-18T00:50:26.440Z,102781.41
2023-04-18T00:52:53.853Z,102783.31
2023-04-18T00:55:21.416Z,102794.09
2023-04-18T00:57:47.956Z,102781.16
2023-04-18T01:00:15.106Z,102786.47
2023-04-18T01:02:41.634Z,102782.34
2023-04-18T01:05:08.730Z,102787.97
2023-04-18T01:07:37.992Z,102765.88
2023-04-18T01:10:05.101Z,102774.34
2023-04-18T01:12:31.674Z,102781.69
2023-04-18T01:14:58.808Z,102778.44
2023-04-18T01:17:25.283Z,102770.84
2023-04-18T01:19:51.739Z,102766.69
2023-04-18T01:22:19.826Z,102784.50
2023-04-18T01:24:46.419Z,102739.19
2023-04-18T01:27:13.837Z,102772.19
2023-04-18T01:29:41.076Z,102788.84
2023-04-18T01:32:07.641Z,102781.16
2023-04-18T01:34:34.127Z,102789.19
2023-04-18T01:37:00.582Z,102773.03
2023-04-18T01:39:27.206Z,102791.34
2023-04-18T01:41:53.713Z,102781.06
2023-04-18T01:44:20.408Z,102785.59
2023-04-18T01:46:46.956Z,102779.56
2023-04-18T01:49:13.663Z,102779.78
2023-04-18T01:51:40.905Z,102783.56
2023-04-18T01:54:07.425Z,102778.41
2023-04-18T01:56:33.976Z,102780.34
2023-04-18T01:59:00.421Z,102790.97
2023-04-18T02:01:27.107Z,102783.28
2023-04-18T02:03:53.981Z,102783.28
2023-04-18T02:06:20.703Z,102757.50
2023-04-18T02:08:47.278Z,102775.56
2023-04-18T02:11:13.743Z,102762.59
2023-04-18T02:13:40.221Z,102773.09
2023-04-18T02:16:12.407Z,102770.63
2023-04-18T02:18:40.096Z,102773.47
2023-04-18T02:21:07.198Z,102773.47
2023-04-18T02:23:33.687Z,102769.28
2023-04-18T02:26:00.285Z,102776.31
2023-04-18T02:28:26.676Z,102748.84
2023-04-18T02:30:53.158Z,102754.28
2023-04-18T02:33:19.594Z,102764.75
2023-04-18T02:35:46.335Z,102772.84
2023-04-18T02:38:13.776Z,102773.09
2023-04-18T02:40:40.225Z,102762.91
2023-04-18T02:43:06.665Z,102778.00
2023-04-18T02:45:33.413Z,102767.19
2023-04-18T02:48:01.273Z,102752.44
2023-04-18T02:50:29.009Z,102774.22
2023-04-18T02:52:55.877Z,102771.56
2023-04-18T02:55:22.529Z,102788.38
2023-04-18T02:57:49.171Z,102783.13
2023-04-18T03:00:16.076Z,102771.78
2023-04-18T03:02:42.626Z,102759.00
2023-04-18T03:05:09.372Z,102779.56
2023-04-18T03:07:35.952Z,102733.13
2023-04-18T03:10:02.454Z,102787.53
2023-04-18T03:12:28.887Z,102779.72
2023-04-18T03:14:55.420Z,102786.69
2023-04-18T03:17:22.076Z,102765.16
2023-04-18T03:19:48.610Z,102781.63
2023-04-18T03:22:15.839Z,102792.16
2023-04-18T03:24:42.372Z,102788.81
2023-04-18T03:27:08.839Z,102793.31
2023-04-18T03:29:35.496Z,102798.72
2023-04-18T03:32:02.032Z,102792.84
2023-04-18T03:34:29.331Z,102792.81
2023-04-18T03:36:56.035Z,102773.16
2023-04-18T03:39:22.523Z,102798.38
2023-04-18T03:41:49.778Z,102778.09
2023-04-18T03:44:16.576Z,102817.19
2023-04-18T03:46:43.183Z,102774.72
2023-04-18T03:49:09.804Z,102813.94
2023-04-18T03:51:43.727Z,102809.00
2023-04-18T03:54:10.155Z,102764.09
2023-04-18T03:56:36.740Z,102821.25
2023-04-18T03:59:03.170Z,102809.97
2023-04-18T04:01:29.730Z,102777.56
2023-04-18T04:03:56.258Z,102793.84
2023-04-18T04:06:22.803Z,102815.47
2023-04-18T04:08:49.238Z,102813.00
2023-04-18T04:11:15.791Z,102794.19
2023-04-18T04:13:42.181Z,102826.28
2023-04-18T04:16:08.726Z,102822.97
2023-04-18T04:18:35.423Z,102823.09
2023-04-18T04:21:03.624Z,102809.56
2023-04-18T04:23:30.127Z,102807.94
2023-04-18T04:25:56.570Z,102831.28
2023-04-18T04:28:23.425Z,102835.72
2023-04-18T04:30:53.798Z,102820.25
2023-04-18T04:33:21.630Z,102824.59
2023-04-18T04:35:48.182Z,102810.09
2023-04-18T04:38:15.397Z,102815.19
2023-04-18T04:40:42.582Z,102849.88
2023-04-18T04:43:16.361Z,102844.59
2023-04-18T04:45:49.582Z,102853.34
2023-04-18T04:48:16.321Z,102840.97
2023-04-18T04:50:57.912Z,102848.75
2023-04-18T04:53:26.286Z,102850.41
2023-04-18T04:55:52.762Z,102834.00
2023-04-18T04:58:19.567Z,102848.38
2023-04-18T05:00:46.195Z,102859.72
2023-04-18T05:03:13.122Z,102852.53
2023-04-18T05:05:39.728Z,102848.03
2023-04-18T05:08:06.522Z,102862.81
2023-04-18T05:10:33.113Z,102855.63
2023-04-18T05:12:59.621Z,102852.91
2023-04-18T05:15:26.062Z,102863.28
2023-04-18T05:17:52.564Z,102859.56
2023-04-18T05:20:19.133Z,102859.41
2023-04-18T05:22:45.684Z,102861.88
2023-04-18T05:25:12.635Z,102864.25
2023-04-18T05:27:39.456Z,102844.13
2023-04-18T05:30:06.778Z,102851.66
2023-04-18T05:32:33.249Z,102866.09
2023-04-18T05:34:59.877Z,102855.22
2023-04-18T05:37:26.343Z,102862.75
2023-04-18T05:39:52.861Z,102867.66
2023-04-18T05:42:19.316Z,102863.50
2023-04-18T05:44:45.821Z,102858.59
2023-04-18T05:47:12.279Z,102864.78
2023-04-18T05:49:38.763Z,102828.00
2023-04-18T05:52:05.613Z,102871.50
2023-04-18T05:54:32.109Z,102846.69
2023-04-18T05:56:58.624Z,102858.22
2023-04-18T05:59:26.697Z,102873.25
2023-04-18T06:01:53.569Z,102856.19
2023-04-18T06:04:21.287Z,102848.75
2023-04-18T06:06:47.949Z,102856.44
2023-04-18T06:09:14.432Z,102881.56
2023-04-18T06:11:40.862Z,102870.59
2023-04-18T06:14:07.770Z,102836.44
2023-04-18T06:16:36.543Z,102875.59
2023-04-18T06:19:03.699Z,102888.19
2023-04-18T06:21:30.205Z,102882.22
2023-04-18T06:23:56.727Z,102871.25
2023-04-18T06:26:23.244Z,102867.41
2023-04-18T06:28:49.665Z,102882.38
2023-04-18T06:31:16.349Z,102870.31
2023-04-18T06:33:42.814Z,102894.81
2023-04-18T06:36:09.482Z,102902.44
2023-04-18T06:38:35.937Z,102884.22
2023-04-18T06:41:02.361Z,102910.97
2023-04-18T06:43:28.938Z,102892.03
2023-04-18T06:45:56.613Z,102907.66
2023-04-18T06:48:23.445Z,102872.72
2023-04-18T06:50:50.332Z,102866.84
2023-04-18T06:53:16.804Z,102908.53
2023-04-18T06:55:43.335Z,102893.63
2023-04-18T06:58:10.143Z,102900.75
2023-04-18T07:00:36.931Z,102866.31
2023-04-18T07:03:11.062Z,102902.44
2023-04-18T07:05:38.017Z,102900.75
2023-04-18T07:08:04.585Z,102897.31
2023-04-18T07:10:31.422Z,102911.56
2023-04-18T07:12:57.997Z,102898.31
2023-04-18T07:15:24.487Z,102909.22
2023-04-18T07:17:51.159Z,102887.25
2023-04-18T07:20:17.783Z,102908.03
2023-04-18T07:22:44.337Z,102909.19
2023-04-18T07:25:10.915Z,102913.75
2023-04-18T07:27:37.631Z,102906.75
2023-04-18T07:30:04.698Z,102906.88
2023-04-18T07:32:31.644Z,102895.00
2023-04-18T07:34:59.200Z,102900.78
2023-04-18T07:37:26.194Z,102888.69
2023-04-18T07:39:52.826Z,102905.56
2023-04-18T07:42:19.370Z,102913.75
2023-04-18T07:44:46.879Z,102897.06
2023-04-18T07:47:13.383Z,102879.16
2023-04-18T07:49:39.853Z,102903.75
2023-04-18T07:52:06.426Z,102912.00
2023-04-18T07:54:32.973Z,102899.25
2023-04-18T07:56:59.647Z,102897.00
2023-04-18T07:59:27.053Z,102907.75
2023-04-18T08:01:53.713Z,102898.94
2023-04-18T08:04:20.472Z,102900.72
2023-04-18T08:06:47.081Z,102840.72
2023-04-18T08:09:13.996Z,102887.16
2023-04-18T08:11:42.186Z,102888.44
2023-04-18T08:14:08.789Z,102876.66
2023-04-18T08:16:35.867Z,102863.13
2023-04-18T08:19:02.296Z,102888.97
2023-04-18T08:21:28.764Z,102903.09
2023-04-18T08:23:55.521Z,102898.50
2023-04-18T08:26:42.163Z,102885.31
2023-04-18T08:29:08.679Z,102907.66
2023-04-18T08:31:35.269Z,102895.72
2023-04-18T08:34:03.136Z,102890.59
2023-04-18T08:36:31.577Z,102888.75
2023-04-18T08:38:58.179Z,102893.41
2023-04-18T08:41:25.913Z,102875.22
2023-04-18T08:43:52.405Z,102900.63
2023-04-18T08:46:19.659Z,102901.31
2023-04-18T08:48:49.305Z,102909.84
2023-04-18T08:51:15.836Z,102911.44
2023-04-18T08:53:45.089Z,102912.41
2023-04-18T08:56:14.609Z,102915.88
2023-04-18T08:58:41.166Z,102916.72
2023-04-18T09:01:07.685Z,102912.00
2023-04-18T09:03:39.963Z,102920.44
2023-04-18T09:06:08.347Z,102907.88
2023-04-18T09:08:35.519Z,102906.63
2023-04-18T09:11:26.207Z,102903.13
2023-04-18T09:13:53.208Z,102908.75
2023-04-18T09:16:22.400Z,102917.56
2023-04-18T09:19:14.009Z,102922.22
2023-04-18T09:21:44.428Z,102910.47
2023-04-18T09:24:24.754Z,102918.19
2023-04-18T09:26:53.742Z,102919.00
2023-04-18T09:29:23.691Z,102894.16
2023-04-18T09:32:03.456Z,102911.91
2023-04-18T09:34:30.372Z,102915.66
2023-04-18T09:37:07.780Z,102920.19
2023-04-18T09:39:34.352Z,102905.75
2023-04-18T09:42:01.433Z,102905.00
2023-04-18T09:44:28.172Z,102854.31
2023-04-18T09:46:54.873Z,102888.91
2023-04-18T09:49:22.028Z,102893.38
2023-04-18T09:51:51.356Z,102890.44
2023-04-18T09:54:19.614Z,102902.91
2023-04-18T09:56:47.314Z,102912.44
2023-04-18T09:59:18.650Z,102912.91
2023-04-18T10:01:48.529Z,102916.44
2023-04-18T10:04:17.204Z,102905.34
2023-04-18T10:06:46.391Z,102873.56
2023-04-18T10:09:14.540Z,102915.28
2023-04-18T10:11:41.973Z,102858.31
2023-04-18T10:14:13.268Z,102882.38
2023-04-18T10:16:40.783Z,102898.78
2023-04-18T10:19:27.279Z,102911.00
2023-04-18T10:21:55.560Z,102866.25
2023-04-18T10:24:53.420Z,102902.22
2023-04-18T10:27:49.187Z,102906.59
2023-04-18T10:30:16.708Z,102914.53
2023-04-18T10:32:43.508Z,102913.75
2023-04-18T10:35:11.140Z,102917.50
2023-04-18T10:37:59.447Z,102910.78
2023-04-18T10:43:00.867Z,102889.28
2023-04-18T10:45:29.767Z,102923.50
2023-04-18T10:48:22.700Z,102922.34
2023-04-18T10:51:14.123Z,102912.50
2023-04-18T10:53:48.048Z,102865.00
2023-04-18T10:56:15.760Z,102903.38
2023-04-18T10:58:47.837Z,102901.53
2023-04-18T11:01:15.740Z,102890.22
2023-04-18T11:03:42.378Z,102893.16
2023-04-18T11:06:08.906Z,102869.66
2023-04-18T11:08:35.770Z,102897.31
2023-04-18T11:11:04.219Z,102907.44
2023-04-18T11:13:31.714Z,102867.88
2023-04-18T11:15:58.170Z,102899.50
2023-04-18T11:18:24.701Z,102903.91
2023-04-18T11:20:51.713Z,102892.91
2023-04-18T11:23:24.871Z,102911.97
2023-04-18T11:25:54.315Z,102913.69
2023-04-18T11:28:21.963Z,102902.56
2023-04-18T11:30:48.585Z,102909.28
2023-04-18T11:33:15.334Z,102875.28
2023-04-18T11:35:46.407Z,102893.00
2023-04-18T11:38:14.992Z,102883.94
2023-04-18T11:40:48.670Z,102870.25
2023-04-18T11:43:20.851Z,102906.41
2023-04-18T11:45:54.263Z,102854.44
2023-04-18T11:48:20.883Z,102898.13
2023-04-18T11:50:47.414Z,102897.75
2023-04-18T11:53:13.828Z,102899.41
2023-04-18T11:55:40.521Z,102893.97
2023-04-18T11:58:07.115Z,102886.06
2023-04-18T12:00:39.267Z,102890.91
2023-04-18T12:03:14.405Z,102903.59
2023-04-18T12:05:42.224Z,102902.09
2023-04-18T12:08:12.092Z,102864.28
2023-04-18T12:10:46.483Z,102897.53
2023-04-18T12:13:13.169Z,102888.75
2023-04-18T12:15:42.220Z,102895.03
2023-04-18T12:18:08.992Z,102881.38
2023-04-18T12:20:39.982Z,102890.63
2023-04-18T12:23:06.667Z,102893.78
2023-04-18T12:25:33.563Z,102900.81
2023-04-18T12:28:02.830Z,102886.13
2023-04-18T12:30:36.835Z,102891.84
2023-04-18T12:33:04.908Z,102880.47
2023-04-18T12:35:32.348Z,102885.72
2023-04-18T12:38:01.084Z,102859.84
2023-04-18T12:40:30.055Z,102886.72
2023-04-18T12:42:56.683Z,102870.66
2023-04-18T12:45:29.570Z,102879.19
2023-04-18T12:47:56.181Z,102883.16
2023-04-18T12:50:27.245Z,102888.72
2023-04-18T12:52:55.727Z,102849.47
2023-04-18T12:55:23.072Z,102878.91
2023-04-18T12:57:52.151Z,102870.22
2023-04-18T13:00:18.671Z,102866.28
2023-04-18T13:02:46.172Z,102837.53
2023-04-18T13:05:15.845Z,102863.56
2023-04-18T13:07:45.096Z,102868.81
2023-04-18T13:10:14.879Z,102871.81
2023-04-18T13:12:41.660Z,102852.88
2023-04-18T13:15:09.645Z,102859.41
2023-04-18T13:17:37.341Z,102861.97
2023-04-18T13:20:08.832Z,102863.25
2023-04-18T13:22:35.760Z,102850.28
2023-04-18T13:25:03.117Z,102862.94
2023-04-18T13:27:29.735Z,102845.88
2023-04-18T13:29:57.216Z,102853.13
2023-04-18T13:32:24.376Z,102853.13
2023-04-18T13:34:51.164Z,102860.25
2023-04-18T13:37:17.655Z,102855.72
2023-04-18T13:39:44.454Z,102847.22
2023-04-18T13:42:10.936Z,102857.59
2023-04-18T13:44:38.281Z,102854.59
2023-04-18T13:47:06.222Z,102858.84
2023-04-18T13:49:38.845Z,102850.31
2023-04-18T13:52:08.074Z,102847.53
2023-04-18T13:54:34.919Z,102854.88
2023-04-18T13:57:03.253Z,102800.41
2023-04-18T13:59:31.960Z,102836.09
2023-04-18T14:01:58.927Z,102844.69
2023-04-18T14:04:27.042Z,102846.38
2023-04-18T14:06:53.881Z,102840.28
2023-04-18T14:09:20.583Z,102833.09
2023-04-18T14:11:49.538Z,102845.72
2023-04-18T14:14:16.069Z,102843.16
2023-04-18T14:16:42.623Z,102843.19
2023-04-18T14:19:12.634Z,102833.91
2023-04-18T14:21:39.590Z,102853.69
2023-04-18T14:24:06.773Z,102836.06
2023-04-18T14:26:33.255Z,102845.59
2023-04-18T14:29:00.431Z,102841.03
2023-04-18T14:31:28.178Z,102848.00
2023-04-18T14:33:54.645Z,102849.00
2023-04-18T14:36:21.242Z,102839.50
2023-04-18T14:38:49.073Z,102823.28
2023-04-18T14:41:16.467Z,102844.19
2023-04-18T14:43:43.148Z,102843.22
2023-04-18T14:46:16.645Z,102853.31
2023-04-18T14:48:47.248Z,102844.34
2023-04-18T14:51:15.887Z,102850.91
2023-04-18T14:53:42.462Z,102840.38
2023-04-18T14:56:11.848Z,102856.13
2023-04-18T14:58:38.592Z,102837.22
2023-04-18T15:01:05.427Z,102827.22
2023-04-18T15:03:32.340Z,102850.03
2023-04-18T15:05:59.375Z,102820.81
2023-04-18T15:08:26.008Z,102844.53
2023-04-18T15:10:52.619Z,102837.41
2023-04-18T15:13:20.908Z,102842.03
2023-04-18T15:15:55.054Z,102841.75
2023-04-18T15:18:21.859Z,102822.66
2023-04-18T15:20:51.799Z,102812.50
2023-04-18T15:23:20.918Z,102847.78
2023-04-18T15:25:47.648Z,102758.94
2023-04-18T15:28:14.187Z,102829.56
2023-04-18T15:30:40.799Z,102834.03
2023-04-18T15:33:07.692Z,102812.38
2023-04-18T15:35:34.238Z,102835.16
2023-04-18T15:38:00.760Z,102821.66
2023-04-18T15:40:27.326Z,102845.59
2023-04-18T15:42:54.513Z,102837.41
2023-04-18T15:45:21.839Z,102810.44
2023-04-18T15:47:48.455Z,102830.53
2023-04-18T15:50:16.361Z,102833.94
2023-04-18T15:52:43.324Z,102835.53
2023-04-18T15:55:13.404Z,102844.34
2023-04-18T15:57:40.552Z,102837.66
2023-04-18T16:00:19.698Z,102821.31
2023-04-18T16:02:46.721Z,102829.97
2023-04-18T16:05:13.652Z,102828.13
2023-04-18T16:07:41.229Z,102831.09
2023-04-18T16:10:10.328Z,102829.69
2023-04-18T16:12:39.550Z,102832.06
2023-04-18T16:15:08.071Z,102830.88
2023-04-18T16:17:36.701Z,102832.25
2023-04-18T16:20:03.749Z,102816.31
2023-04-18T16:22:30.578Z,102834.72
2023-04-18T16:24:57.460Z,102829.88
2023-04-18T16:27:23.923Z,102820.94
2023-04-18T16:29:50.541Z,102820.69
2023-04-18T16:32:17.259Z,102828.19
2023-04-18T16:34:43.749Z,102808.94
2023-04-18T16:37:10.219Z,102838.00
2023-04-18T16:39:36.954Z,102821.72
2023-04-18T16:42:03.796Z,102840.78
2023-04-18T16:44:30.762Z,102828.25
2023-04-18T16:46:57.324Z,102821.19
2023-04-18T16:49:23.893Z,102827.72
2023-04-18T16:51:50.993Z,102845.19
2023-04-18T16:54:17.866Z,102783.00
2023-04-18T16:56:44.825Z,102796.63
2023-04-18T16:59:11.441Z,102845.59
2023-04-18T17:01:38.145Z,102839.44
2023-04-18T17:04:05.161Z,102827.88
2023-04-18T17:06:32.564Z,102856.19
2023-04-18T17:08:59.021Z,102839.41
2023-04-18T17:11:26.403Z,102848.75
2023-04-18T17:13:53.012Z,102837.03
2023-04-18T17:16:19.500Z,102858.06
2023-04-18T17:18:45.944Z,102862.59
2023-04-18T17:21:12.579Z,102855.72
2023-04-18T17:23:41.517Z,102865.44
2023-04-18T17:26:09.014Z,102812.53
2023-04-18T17:28:36.220Z,102827.19
2023-04-18T17:31:02.875Z,102864.13
2023-04-18T17:33:29.365Z,102875.34
2023-04-18T17:35:55.994Z,102809.53
2023-04-18T17:38:23.258Z,102867.47
2023-04-18T17:40:58.032Z,102852.13
2023-04-18T17:43:24.681Z,102843.22
2023-04-18T17:45:51.461Z,102873.66
2023-04-18T17:48:18.011Z,102884.66
2023-04-18T17:50:44.584Z,102884.59
2023-04-18T17:53:12.418Z,102876.97
2023-04-18T17:55:40.290Z,102883.72
2023-04-18T17:58:13.553Z,102894.47
2023-04-18T18:00:40.082Z,102841.56
2023-04-18T18:03:08.913Z,102883.00
2023-04-18T18:05:35.570Z,102873.19
2023-04-18T18:08:02.144Z,102884.91
2023-04-18T18:10:29.117Z,102890.50
2023-04-18T18:12:56.267Z,102897.34
2023-04-18T18:15:24.212Z,102895.66
2023-04-18T18:17:51.832Z,102893.59
2023-04-18T18:20:19.148Z,102861.56
2023-04-18T18:22:46.266Z,102906.69
2023-04-18T18:25:13.072Z,102906.19
2023-04-18T18:27:40.672Z,102900.56
2023-04-18T18:30:08.091Z,102919.31
2023-04-18T18:32:34.748Z,102924.97
2023-04-18T18:35:01.773Z,102916.28
2023-04-18T18:37:28.221Z,102929.88
2023-04-18T18:39:56.155Z,102930.03
2023-04-18T18:42:22.755Z,102924.84
2023-04-18T18:44:49.300Z,102927.50
2023-04-18T18:47:17.339Z,102928.41
2023-04-18T18:49:43.863Z,102931.84
2023-04-18T18:52:10.372Z,102939.81
2023-04-18T18:54:36.866Z,102910.50
2023-04-18T18:57:03.343Z,102899.94
2023-04-18T18:59:29.927Z,102918.63
2023-04-18T19:01:56.554Z,102870.34
2023-04-18T19:04:24.830Z,102945.09
2023-04-18T19:06:51.434Z,102942.69
2023-04-18T19:09:17.863Z,102943.16
2023-04-18T19:11:44.384Z,102947.16
2023-04-18T19:14:10.848Z,102960.50
2023-04-18T19:16:37.538Z,102962.00
2023-04-18T19:19:04.272Z,102964.25
2023-04-18T19:21:31.412Z,102933.78
2023-04-18T19:23:57.880Z,102951.16
2023-04-18T19:26:24.380Z,102957.53
2023-04-18T19:28:50.823Z,102960.56
2023-04-18T19:31:17.405Z,102954.13
2023-04-18T19:33:43.924Z,102955.31
2023-04-18T19:36:10.366Z,102953.78
2023-04-18T19:38:36.890Z,102929.41
2023-04-18T19:41:03.423Z,102953.59
2023-04-18T19:43:29.864Z,102961.00
2023-04-18T19:45:56.368Z,102946.19
2023-04-18T19:48:22.881Z,102945.78
2023-04-18T19:50:49.658Z,102937.44
2023-04-18T19:53:16.348Z,102935.88
2023-04-18T19:55:44.849Z,102944.06
2023-04-18T19:58:11.391Z,102933.38
2023-04-18T20:00:38.229Z,102956.84
2023-04-18T20:03:05.118Z,102934.72
2023-04-18T20:05:31.899Z,102949.94
2023-04-18T20:07:58.400Z,102952.38
2023-04-18T20:10:24.996Z,102943.09
2023-04-18T20:12:51.796Z,102885.59
2023-04-18T20:15:18.565Z,102958.22
2023-04-18T20:17:45.142Z,102961.97
2023-04-18T20:20:12.310Z,102955.09
2023-04-18T20:22:41.752Z,102968.56
2023-04-18T20:25:08.972Z,102940.50
2023-04-18T20:27:35.759Z,102972.59
2023-04-18T20:30:02.485Z,102965.97
2023-04-18T20:32:29.127Z,102969.56
2023-04-18T20:34:55.692Z,102961.66
2023-04-18T20:37:22.307Z,102974.03
2023-04-18T20:39:48.994Z,102975.97
2023-04-18T20:42:15.901Z,102967.78
2023-04-18T20:44:46.728Z,102990.38
2023-04-18T20:47:15.526Z,102976.56
2023-04-18T20:49:42.710Z,102974.63
2023-04-18T20:52:09.645Z,102980.81
2023-04-18T20:54:36.371Z,102991.56
2023-04-18T20:57:05.497Z,102978.56
2023-04-18T20:59:32.295Z,102991.75
2023-04-18T21:01:59.008Z,102965.19
2023-04-18T21:04:25.891Z,102996.34
2023-04-18T21:06:52.513Z,102968.94
2023-04-18T21:09:19.295Z,102994.06
2023-04-18T21:11:45.966Z,102994.31
2023-04-18T21:14:12.840Z,102989.06
2023-04-18T21:16:39.849Z,102982.41
2023-04-18T21:19:06.911Z,103007.94
2023-04-18T21:21:34.387Z,103003.00
2023-04-18T21:24:01.870Z,103013.81
2023-04-18T21:26:28.679Z,103005.31
2023-04-18T21:28:59.939Z,103015.28
2023-04-18T21:31:28.700Z,103004.34
2023-04-18T21:34:00.481Z,103015.09
2023-04-18T21:36:28.018Z,103014.09
2023-04-18T21:38:56.024Z,103028.94
2023-04-18T21:41:23.762Z,103023.94
2023-04-18T21:43:50.795Z,103016.44
2023-04-18T21:46:18.272Z,103006.31
2023-04-18T21:48:46.691Z,103019.47
2023-04-18T21:51:15.026Z,103017.09
2023-04-18T21:53:42.409Z,103020.91
2023-04-18T21:56:09.012Z,103022.00
2023-04-18T21:58:35.619Z,102983.34
2023-04-18T22:01:02.447Z,103011.78
2023-04-18T22:03:29.514Z,103012.84
2023-04-18T22:05:56.713Z,103013.19
2023-04-18T22:08:25.634Z,102996.22
2023-04-18T22:10:56.219Z,102999.81
2023-04-18T22:13:23.076Z,103010.44
2023-04-18T22:15:51.452Z,103010.06
2023-04-18T22:18:18.895Z,103018.03
2023-04-18T22:20:47.340Z,103000.06
2023-04-18T22:23:14.119Z,103016.78
2023-04-18T22:25:40.832Z,102968.72
2023-04-18T22:28:07.617Z,102987.25
2023-04-18T22:30:34.452Z,103014.91
2023-04-18T22:33:01.181Z,103004.44
2023-04-18T22:35:27.919Z,102998.53
2023-04-18T22:37:55.899Z,103009.28
2023-04-18T22:40:22.584Z,103005.94
2023-04-18T22:42:51.876Z,103004.50
2023-04-18T22:45:19.403Z,102977.28
2023-04-18T22:47:46.739Z,102982.59
2023-04-18T22:50:14.146Z,102974.22
2023-04-18T22:52:41.217Z,103010.06
2023-04-18T22:55:08.549Z,103013.44
2023-04-18T22:57:35.282Z,102972.75
2023-04-18T23:00:01.876Z,103002.22
2023-04-18T23:02:28.636Z,103005.78
2023-04-18T23:05:01.378Z,103013.22
2023-04-18T23:07:28.544Z,102969.75
2023-04-18T23:09:55.067Z,103011.63
2023-04-18T23:12:22.016Z,103008.31
2023-04-18T23:14:48.766Z,103012.81
2023-04-18T23:17:15.314Z,103008.38
2023-04-18T23:19:41.802Z,102994.66
2023-04-18T23:22:08.294Z,102998.06
2023-04-18T23:24:34.760Z,102976.59
2023-04-18T23:27:01.792Z,102995.84
2023-04-18T23:29:28.418Z,103001.03
2023-04-18T23:31:55.103Z,103000.22
2023-04-18T23:34:21.740Z,103001.22
2023-04-18T23:36:48.320Z,103001.28
2023-04-18T23:39:14.988Z,102991.66
2023-04-18T23:41:41.450Z,102969.31
2023-04-18T23:44:07.945Z,102965.00
2023-04-18T23:46:36.373Z,102999.66
2023-04-18T23:49:03.478Z,102987.38
2023-04-18T23:51:29.946Z,102990.13
2023-04-18T23:53:56.469Z,102991.22
2023-04-18T23:56:23.214Z,102983.28
2023-04-18T23:58:50.545Z,102987.88
